Glasgow, Montana
Current Conditions -  °F | °C
As of 12:53 PM on Monday 22 Dec 2014 (Local Time) from KGGW Reporting Station
Overcast Overcast  
Wind Chill: 18°   Ceiling: 1600
Heat Index: 30°   Visibility: 10mi
Dew Point: 25°   Wind: 20mph
Humidity: 82%   Direction: 350°N
Pressure: 29.73"   Gusts: NA
Location:  48.2°N, 106.64°W
Report Text: KGGW 221953Z AUTO 35017KT 10SM OVC016 M01/M04 A2973 RMK AO2 SLP094 T10111039
Loading
Personal Weather Stations






























Interactive Weather Map New forecast layout! Learn more

10-Day Weather Forecast

Advertisements
Track Severe Weather on mobile